Time;durP1;ratioP1;P1;durP2;ratioP2;P2;SDS_P1;SDS_P2;PMS_P1;PMS_P2;Temp;Humidity;BMP_temperature;BMP_pressure;BME280_temperature;BME280_humidity;BME280_pressure;Samples;Min_cycle;Max_cycle;Signal;HPM_P1;HPM_P2
2024/03/19 00:01:19;;;;;;;6.70;3.53;;;;;;;-145.69;77.81;52442.41;5114290;28;20202;-79
2024/03/19 00:03:46;;;;;;;7.27;3.80;;;;;;;-145.69;77.91;52460.22;5114208;28;20266;-78
2024/03/19 00:06:15;;;;;;;6.67;3.10;;;;;;;-145.69;77.95;52428.53;5125574;27;20709;-79
2024/03/19 00:08:47;;;;;;;7.40;3.50;;;;;;;-145.69;78.26;52446.38;5134147;27;20199;-79
2024/03/19 00:11:14;;;;;;;8.30;3.67;;;;;;;-145.69;78.44;52428.53;5134955;27;20192;-79
2024/03/19 00:13:42;;;;;;;7.00;3.47;;;;;;;-145.69;77.93;52456.28;5129049;27;20308;-79
2024/03/19 00:16:08;;;;;;;11.43;3.73;;;;;;;-145.69;78.44;52458.25;5113985;28;20201;-79
2024/03/19 00:18:36;;;;;;;5.40;2.87;;;;;;;-145.69;78.24;52472.13;5113885;28;20231;-79
2024/03/19 00:21:04;;;;;;;6.43;3.33;;;;;;;-145.69;78.33;52444.38;5113852;28;20204;-80
2024/03/19 00:23:33;;;;;;;7.67;3.60;;;;;;;-145.69;77.75;52414.69;5130822;27;20204;-79
2024/03/19 00:26:00;;;;;;;6.97;2.67;;;;;;;-145.69;77.79;52422.59;5134121;27;20200;-79
2024/03/19 00:28:26;;;;;;;4.87;2.40;;;;;;;-145.69;77.73;52448.34;5134389;27;20204;-79
2024/03/19 00:30:54;;;;;;;3.57;2.07;;;;;;;-145.69;78.18;52428.53;5128924;27;23258;-79
2024/03/19 00:33:21;;;;;;;3.13;2.10;;;;;;;-145.69;77.89;52428.53;5113222;28;20229;-79
2024/03/19 00:35:48;;;;;;;3.87;2.03;;;;;;;-145.69;77.27;52396.84;5116838;27;20273;-78
2024/03/19 00:38:14;;;;;;;7.10;2.40;;;;;;;-145.69;77.57;52402.78;5112916;28;20285;-79
2024/03/19 00:40:43;;;;;;;5.00;2.00;;;;;;;-145.69;78.07;52416.66;5113506;28;20198;-79
2024/03/19 00:43:09;;;;;;;3.17;1.90;;;;;;;-145.69;77.29;52448.34;5113214;28;20201;-79
2024/03/19 00:45:36;;;;;;;9.57;2.90;;;;;;;-145.69;77.52;52388.94;5113213;28;20208;-79
2024/03/19 00:48:05;;;;;;;7.87;3.17;;;;;;;-145.69;77.75;52458.25;5113546;28;20213;-79
2024/03/19 00:50:31;;;;;;;7.30;3.60;;;;;;;-145.69;77.57;52422.59;5113209;28;20684;-79
2024/03/19 00:52:58;;;;;;;7.27;3.50;;;;;;;-145.69;77.09;52416.66;5113237;28;20225;-79
2024/03/19 00:55:26;;;;;;;7.40;3.60;;;;;;;-145.69;77.27;52396.84;5112592;28;20723;-79
2024/03/19 00:57:54;;;;;;;7.47;3.70;;;;;;;-145.69;77.52;52434.47;5113188;28;20218;-79
2024/03/19 01:00:20;;;;;;;7.93;3.40;;;;;;;-145.69;77.74;52408.75;5113283;28;20193;-79
2024/03/19 01:02:48;;;;;;;9.73;3.60;;;;;;;-145.69;77.40;52452.31;5111870;28;20236;-79
2024/03/19 01:05:16;;;;;;;7.93;3.40;;;;;;;-145.69;77.50;52420.63;5112148;28;20193;-79
2024/03/19 01:07:42;;;;;;;5.80;3.37;;;;;;;-145.69;77.72;52418.63;5106561;28;20289;-78
2024/03/19 01:10:10;;;;;;;6.60;2.73;;;;;;;-145.69;77.35;52446.38;5098816;28;20276;-78
2024/03/19 01:12:37;;;;;;;7.53;3.27;;;;;;;-145.69;77.76;52420.63;5112570;28;20228;-79
2024/03/19 01:15:05;;;;;;;5.03;2.90;;;;;;;-145.69;77.97;52448.34;5112665;28;20199;-79
2024/03/19 01:17:35;;;;;;;6.77;3.40;;;;;;;-145.69;77.57;52410.72;5112840;28;20229;-78
2024/03/19 01:20:02;;;;;;;6.13;2.70;;;;;;;-145.69;77.91;52432.50;5112620;28;20198;-78
2024/03/19 01:22:30;;;;;;;5.93;2.67;;;;;;;-145.69;77.79;52428.53;5112826;27;20372;-80
2024/03/19 01:24:58;;;;;;;9.13;2.83;;;;;;;-145.69;77.37;52440.44;5112758;28;20205;-79
2024/03/19 01:27:24;;;;;;;6.37;2.70;;;;;;;-145.69;77.62;52408.75;5112874;28;20209;-78
2024/03/19 01:29:51;;;;;;;6.80;3.00;;;;;;;-145.69;77.30;52474.09;5112815;28;20204;-79
2024/03/19 01:32:17;;;;;;;7.20;3.00;;;;;;;-145.69;77.89;52381.00;5112275;28;20225;-79
2024/03/19 01:34:44;;;;;;;5.97;2.70;;;;;;;-145.69;77.78;52434.47;5124450;28;20279;-79
2024/03/19 01:37:11;;;;;;;5.53;2.70;;;;;;;-145.69;77.91;52432.50;5115393;28;20204;-80
2024/03/19 01:39:39;;;;;;;5.63;3.00;;;;;;;-145.69;77.60;52422.59;5112488;28;20205;-79
2024/03/19 01:42:06;;;;;;;5.37;2.50;;;;;;;-145.69;77.54;52420.63;5112454;28;20292;-79
2024/03/19 01:44:32;;;;;;;6.23;2.77;;;;;;;-145.69;78.21;52388.94;5112464;28;20280;-79
2024/03/19 01:46:59;;;;;;;3.90;2.30;;;;;;;-145.69;77.70;52448.34;5112690;28;20201;-79
2024/03/19 01:49:25;;;;;;;4.60;2.37;;;;;;;-145.69;78.33;52450.31;5112205;28;20196;-79
2024/03/19 01:51:56;;;;;;;5.63;2.47;;;;;;;-145.69;78.23;52400.81;5112263;28;20222;-79
2024/03/19 01:54:23;;;;;;;7.03;2.50;;;;;;;-145.69;77.94;52420.63;5112301;28;20704;-80
2024/03/19 01:56:51;;;;;;;3.80;2.20;;;;;;;-145.69;77.76;52408.75;5112248;28;20198;-78
2024/03/19 01:59:18;;;;;;;3.23;2.20;;;;;;;-145.69;77.74;52396.84;5112262;28;20559;-78
2024/03/19 02:01:45;;;;;;;3.23;2.10;;;;;;;-145.69;78.68;52440.44;5112772;28;20250;-78
2024/03/19 02:04:12;;;;;;;6.80;1.90;;;;;;;-145.69;78.40;52430.53;5112443;28;20196;-79
2024/03/19 02:06:38;;;;;;;2.90;1.93;;;;;;;-145.69;78.98;52434.47;5112504;28;20193;-78
2024/03/19 02:09:08;;;;;;;7.93;2.50;;;;;;;-145.69;78.67;52406.75;5112271;28;20667;-80
2024/03/19 02:11:34;;;;;;;8.03;2.23;;;;;;;-145.69;78.54;52438.44;5112271;28;20301;-80
2024/03/19 02:14:05;;;;;;;4.53;2.47;;;;;;;-145.69;78.35;52416.66;5113918;28;20236;-78
2024/03/19 02:16:34;;;;;;;6.27;2.27;;;;;;;-145.69;78.07;52400.81;5115666;28;20284;-79
2024/03/19 02:19:04;;;;;;;4.60;2.17;;;;;;;-145.69;78.43;52394.88;5115671;28;20197;-80
2024/03/19 02:21:31;;;;;;;9.17;2.57;;;;;;;-145.69;77.71;52408.75;5116141;28;20270;-79
2024/03/19 02:23:59;;;;;;;4.33;2.50;;;;;;;-145.69;77.50;52414.69;5115878;28;20656;-79
2024/03/19 02:26:27;;;;;;;6.90;2.37;;;;;;;-145.69;77.44;52402.78;5115708;28;20207;-79
2024/03/19 02:28:54;;;;;;;4.13;2.60;;;;;;;-145.69;77.03;52412.69;5116041;28;20197;-79
2024/03/19 02:31:22;;;;;;;4.10;2.50;;;;;;;-145.69;77.13;52418.63;5116218;28;20206;-79
2024/03/19 02:33:48;;;;;;;5.17;2.30;;;;;;;-145.69;77.77;52440.44;5114723;28;20221;-79
2024/03/19 02:36:15;;;;;;;7.00;2.53;;;;;;;-145.69;77.76;52414.69;5115765;28;20205;-79
2024/03/19 02:38:41;;;;;;;6.07;2.70;;;;;;;-145.69;78.63;52388.94;5115651;28;20208;-78
2024/03/19 02:41:09;;;;;;;8.30;2.73;;;;;;;-145.69;78.96;52426.56;5115974;28;20201;-79
2024/03/19 02:43:37;;;;;;;3.70;2.20;;;;;;;-145.69;78.85;52412.69;5115303;28;20197;-79
2024/03/19 02:46:03;;;;;;;4.97;2.20;;;;;;;-145.69;79.12;52436.47;5115494;28;20189;-78
2024/03/19 02:48:30;;;;;;;2.83;1.90;;;;;;;-145.69;78.88;52442.41;5115618;28;20194;-79
2024/03/19 02:50:56;;;;;;;3.63;2.10;;;;;;;-145.69;78.35;52412.69;5115544;28;20236;-79
2024/03/19 02:53:23;;;;;;;2.33;1.63;;;;;;;-145.69;78.90;52402.78;5115196;28;20255;-79
2024/03/19 02:55:50;;;;;;;2.13;1.50;;;;;;;-145.69;78.37;52424.59;5115336;28;20223;-78
2024/03/19 02:58:21;;;;;;;2.80;1.73;;;;;;;-145.69;78.53;52426.56;5114992;28;20204;-78
2024/03/19 03:00:47;;;;;;;1.93;1.53;;;;;;;-145.69;78.49;52452.31;5115189;28;20201;-79
2024/03/19 03:03:14;;;;;;;3.43;2.03;;;;;;;-145.69;78.31;52402.78;5115354;28;20284;-79
2024/03/19 03:05:44;;;;;;;4.07;1.73;;;;;;;-145.69;78.48;52426.56;5114949;28;20197;-79
2024/03/19 03:08:11;;;;;;;3.33;1.33;;;;;;;-145.69;78.42;52420.63;5112175;28;20227;-79
2024/03/19 03:10:41;;;;;;;1.53;1.37;;;;;;;-145.69;78.23;52408.75;5115130;28;20227;-79
2024/03/19 03:13:07;;;;;;;2.30;1.60;;;;;;;-145.69;78.43;52420.63;5115059;28;20225;-79
2024/03/19 03:15:38;;;;;;;3.97;1.60;;;;;;;-145.69;78.22;52432.50;5115166;28;20288;-79
2024/03/19 03:18:08;;;;;;;3.63;1.40;;;;;;;-145.69;77.37;52440.44;5115321;28;20199;-79
2024/03/19 03:20:34;;;;;;;2.77;1.53;;;;;;;-145.69;77.95;52426.56;5115083;28;20252;-79
2024/03/19 03:23:01;;;;;;;1.90;1.50;;;;;;;-145.69;77.96;52434.47;5115031;28;20195;-79
2024/03/19 03:25:27;;;;;;;2.03;1.60;;;;;;;-145.69;77.71;52424.59;5114282;28;20292;-80
2024/03/19 03:27:54;;;;;;;3.37;1.60;;;;;;;-145.69;78.04;52438.44;5133161;27;20225;-79
2024/03/19 03:30:21;;;;;;;4.00;1.70;;;;;;;-145.69;77.62;52434.47;5117163;27;20193;-79
2024/03/19 03:32:49;;;;;;;4.43;1.90;;;;;;;-145.69;77.70;52438.44;5113809;27;20221;-78
2024/03/19 03:35:15;;;;;;;3.27;2.00;;;;;;;-145.69;77.84;52452.31;5115013;28;20228;-79
2024/03/19 03:37:42;;;;;;;4.17;2.50;;;;;;;-145.69;77.07;52428.53;5114346;28;20201;-79
2024/03/19 03:40:13;;;;;;;7.77;2.47;;;;;;;-145.69;77.11;52422.59;5114600;28;20678;-80
2024/03/19 03:42:40;;;;;;;4.67;2.40;;;;;;;-145.69;78.20;52464.19;5114654;27;20621;-79
2024/03/19 03:45:11;;;;;;;6.50;2.77;;;;;;;-145.69;78.19;52428.53;5114024;28;20212;-79
2024/03/19 03:47:41;;;;;;;4.53;2.50;;;;;;;-145.69;77.71;52454.28;5114153;28;20201;-79
2024/03/19 03:50:11;;;;;;;3.83;2.23;;;;;;;-145.69;77.67;52432.50;5114237;28;20557;-79
2024/03/19 03:52:40;;;;;;;3.50;2.40;;;;;;;-145.69;76.86;52446.38;5114524;28;20201;-79
2024/03/19 03:55:09;;;;;;;7.17;2.60;;;;;;;-145.69;77.59;52472.13;5113924;28;20193;-79
2024/03/19 03:57:36;;;;;;;5.03;2.60;;;;;;;-145.69;79.41;52460.22;5114664;27;20201;-78
2024/03/19 04:00:08;;;;;;;3.83;2.67;;;;;;;-145.69;78.23;52444.38;5114281;28;20220;-79
2024/03/19 04:02:35;;;;;;;5.03;2.60;;;;;;;-145.69;78.94;52466.16;5114596;28;20582;-79
2024/03/19 04:05:01;;;;;;;4.17;2.73;;;;;;;-145.69;78.94;52462.22;5114327;28;20200;-79
2024/03/19 04:07:29;;;;;;;4.53;2.93;;;;;;;-145.69;78.87;52460.22;5114086;28;20198;-79
2024/03/19 04:09:56;;;;;;;3.97;2.40;;;;;;;-145.69;79.28;52448.34;5113534;28;20707;-79
2024/03/19 04:12:23;;;;;;;6.20;3.13;;;;;;;-145.69;78.28;52468.16;5113422;28;20198;-79
2024/03/19 04:14:52;;;;;;;4.63;2.53;;;;;;;-145.69;79.80;52452.31;5113746;28;20225;-79
2024/03/19 04:17:19;;;;;;;5.10;2.70;;;;;;;-145.69;78.48;52434.47;5113481;28;20197;-79
2024/03/19 04:19:45;;;;;;;3.83;2.60;;;;;;;-145.69;78.45;52476.06;5113922;28;20281;-79
2024/03/19 04:22:16;;;;;;;9.23;2.50;;;;;;;-145.69;77.80;52480.03;5113897;28;20201;-79
2024/03/19 04:24:43;;;;;;;5.80;2.40;;;;;;;-145.69;78.34;52462.22;5113884;28;20205;-78
2024/03/19 04:27:10;;;;;;;4.40;2.57;;;;;;;-145.69;78.21;52456.28;5113195;27;20292;-78
2024/03/19 04:29:36;;;;;;;4.73;2.70;;;;;;;-145.69;77.96;52456.28;5113503;28;20190;-78
2024/03/19 04:32:03;;;;;;;4.93;2.50;;;;;;;-145.69;77.40;52466.16;5113630;28;20201;-78
2024/03/19 04:34:30;;;;;;;6.63;2.77;;;;;;;-145.69;77.22;52478.06;5113132;28;20605;-78
2024/03/19 04:36:57;;;;;;;3.43;2.67;;;;;;;-145.69;77.35;52484.00;5113585;28;20194;-78
2024/03/19 04:39:23;;;;;;;4.63;2.57;;;;;;;-145.69;76.71;52480.03;5113426;28;20201;-78
2024/03/19 04:41:51;;;;;;;4.53;2.03;;;;;;;-145.69;77.54;52446.38;5113140;28;20584;-77
2024/03/19 04:44:20;;;;;;;6.60;3.53;;;;;;;-145.69;78.31;52466.16;5113359;28;20633;-78
2024/03/19 04:46:48;;;;;;;5.00;3.03;;;;;;;-145.69;78.41;52464.19;5113242;28;20205;-79
2024/03/19 04:49:14;;;;;;;4.23;2.73;;;;;;;-145.69;79.05;52462.22;5113633;28;20225;-78
2024/03/19 04:51:41;;;;;;;5.87;2.83;;;;;;;-145.69;78.42;52444.38;5113066;28;20275;-79
2024/03/19 04:54:07;;;;;;;5.07;2.90;;;;;;;-145.69;78.52;52448.34;5112772;28;20236;-79
2024/03/19 04:56:37;;;;;;;4.03;2.73;;;;;;;-145.69;78.34;52464.19;5116910;27;20250;-79
2024/03/19 04:59:06;;;;;;;5.80;3.30;;;;;;;-145.69;77.86;52484.00;5112988;28;20229;-78
2024/03/19 05:01:33;;;;;;;5.67;2.90;;;;;;;-145.69;77.69;52440.44;5112731;28;20197;-79
2024/03/19 05:03:59;;;;;;;5.20;2.80;;;;;;;-145.69;77.62;52436.47;5112668;28;20196;-79
2024/03/19 05:06:26;;;;;;;8.17;2.33;;;;;;;-145.69;76.72;52454.28;5108082;28;20197;-79
2024/03/19 05:08:56;;;;;;;3.70;2.33;;;;;;;-145.69;75.97;52440.44;5094688;28;20576;-79
2024/03/19 05:11:25;;;;;;;3.70;2.00;;;;;;;-145.69;75.57;52444.38;5092676;28;20202;-79
2024/03/19 05:13:51;;;;;;;4.27;2.13;;;;;;;-145.69;75.56;52474.09;5092828;28;20229;-79
2024/03/19 05:16:19;;;;;;;3.40;2.00;;;;;;;-145.69;75.87;52460.22;5092773;28;20198;-78
2024/03/19 05:18:46;;;;;;;4.10;2.50;;;;;;;-145.69;77.35;52452.31;5091486;28;20515;-79
2024/03/19 05:21:13;;;;;;;4.10;2.10;;;;;;;-145.69;76.56;52452.31;5092173;28;20292;-80
2024/03/19 05:23:39;;;;;;;3.00;1.97;;;;;;;-145.69;76.04;52452.31;5092876;28;20202;-79
2024/03/19 05:26:07;;;;;;;6.20;1.83;;;;;;;-145.69;75.77;52476.06;5104754;28;20227;-79
2024/03/19 05:28:33;;;;;;;6.50;2.50;;;;;;;-145.69;75.50;52448.34;5114625;28;20225;-79
2024/03/19 05:31:00;;;;;;;5.00;2.13;;;;;;;-145.69;76.31;52487.97;5112489;28;20204;-80
2024/03/19 05:33:28;;;;;;;2.80;2.10;;;;;;;-145.69;76.46;52476.06;5112772;28;20259;-79
2024/03/19 05:35:57;;;;;;;3.17;1.90;;;;;;;-145.69;76.80;52497.84;5112010;28;20189;-79
2024/03/19 05:38:24;;;;;;;3.47;1.97;;;;;;;-145.69;76.33;52468.16;5112485;28;20193;-79
2024/03/19 05:41:00;;;;;;;5.73;1.73;;;;;;;-145.69;76.08;52466.16;5112977;28;20194;-79
2024/03/19 05:43:26;;;;;;;2.67;2.03;;;;;;;-145.69;75.86;52484.00;5112774;28;20402;-79
2024/03/19 05:45:55;;;;;;;4.00;2.03;;;;;;;-145.69;76.69;52484.00;5112906;28;20651;-79
2024/03/19 05:48:22;;;;;;;3.40;2.47;;;;;;;-145.69;77.05;52450.31;5112638;28;20210;-79
2024/03/19 05:50:51;;;;;;;3.83;2.37;;;;;;;-145.69;77.32;52468.16;5116106;28;20229;-79
2024/03/19 05:53:18;;;;;;;4.60;2.70;;;;;;;-145.69;76.84;52452.31;5096126;28;20669;-79
2024/03/19 05:55:46;;;;;;;3.53;2.50;;;;;;;-145.69;76.79;52476.06;5095989;28;20198;-79
2024/03/19 05:58:13;;;;;;;4.67;2.53;;;;;;;-145.69;76.62;52485.97;5134970;27;20277;-79
2024/03/19 06:00:42;;;;;;;7.37;2.67;;;;;;;-145.69;76.63;52466.16;5137180;27;20207;-79
2024/03/19 06:03:08;;;;;;;5.87;2.97;;;;;;;-145.69;75.82;52495.88;5137319;27;20201;-80
2024/03/19 06:05:35;;;;;;;4.23;2.57;;;;;;;-145.69;76.42;52464.19;5137357;27;20299;-79
2024/03/19 06:08:06;;;;;;;7.03;2.67;;;;;;;-145.69;76.90;52446.38;5136408;27;20529;-80
2024/03/19 06:10:32;;;;;;;5.43;2.73;;;;;;;-145.69;77.77;52452.31;5137277;27;20257;-80
2024/03/19 06:12:59;;;;;;;4.67;2.57;;;;;;;-145.69;77.87;52460.22;5122694;27;20189;-80
2024/03/19 06:15:27;;;;;;;5.67;2.53;;;;;;;-145.69;77.27;52456.28;5115894;28;20232;-78
2024/03/19 06:17:55;;;;;;;9.10;2.60;;;;;;;-145.69;77.06;52446.38;5116239;28;20537;-80
2024/03/19 06:20:24;;;;;;;7.97;2.73;;;;;;;-145.69;77.42;52474.09;5116344;28;20254;-80
2024/03/19 06:22:52;;;;;;;4.87;2.40;;;;;;;-145.69;77.16;52495.88;5116300;28;20201;-79
2024/03/19 06:25:22;;;;;;;12.30;2.80;;;;;;;-145.69;77.01;52454.28;5115868;28;20621;-80
2024/03/19 06:27:49;;;;;;;4.23;2.50;;;;;;;-145.69;77.34;52474.09;5128258;27;20539;-79
2024/03/19 06:30:16;;;;;;;2.50;1.83;;;;;;;-145.69;76.63;52458.25;5136655;27;20296;-79
2024/03/19 06:32:42;;;;;;;4.77;2.60;;;;;;;-145.69;77.03;52446.38;5136661;27;20200;-79
2024/03/19 06:35:09;;;;;;;4.20;2.00;;;;;;;-145.69;76.89;52460.22;5133226;27;20225;-80
2024/03/19 06:37:36;;;;;;;5.10;2.60;;;;;;;-145.69;77.03;52434.47;5116185;28;20304;-79
2024/03/19 06:40:06;;;;;;;3.00;2.40;;;;;;;-145.69;77.10;52519.63;5115649;28;20229;-79
2024/03/19 06:42:35;;;;;;;5.43;2.57;;;;;;;-145.69;77.25;52438.44;5115886;28;20228;-79
2024/03/19 06:45:04;;;;;;;4.33;2.93;;;;;;;-145.69;78.38;52424.59;5116060;28;20193;-80
2024/03/19 06:47:30;;;;;;;8.87;3.50;;;;;;;-145.69;78.19;52446.38;5115379;28;20197;-79
2024/03/19 06:49:59;;;;;;;4.03;2.50;;;;;;;-145.69;77.75;52408.75;5115755;28;20201;-79
2024/03/19 06:52:26;;;;;;;4.77;3.20;;;;;;;-145.69;77.98;52436.47;5115455;28;20209;-79
2024/03/19 06:54:52;;;;;;;8.63;3.10;;;;;;;-145.69;77.28;52438.44;5115505;28;20265;-80
2024/03/19 06:57:19;;;;;;;5.30;3.27;;;;;;;-145.69;77.53;52460.22;5122238;27;20663;-79
2024/03/19 06:59:47;;;;;;;8.73;3.47;;;;;;;-145.69;77.37;52456.28;5118639;27;20193;-79
2024/03/19 07:02:18;;;;;;;7.83;3.90;;;;;;;-145.69;77.28;52452.31;5114185;28;20194;-79
2024/03/19 07:04:44;;;;;;;8.97;3.63;;;;;;;-145.69;77.65;52438.44;5114615;28;20202;-79
2024/03/19 07:07:14;;;;;;;7.67;3.87;;;;;;;-145.69;77.52;52432.50;5115417;28;20622;-80
2024/03/19 07:09:41;;;;;;;5.10;3.43;;;;;;;-145.69;77.65;52464.19;5115203;28;20198;-79
2024/03/19 07:12:08;;;;;;;5.53;3.20;;;;;;;-145.69;77.77;52412.69;5105228;28;20197;-79
2024/03/19 07:14:35;;;;;;;8.07;3.33;;;;;;;-145.69;78.47;52412.69;5094800;28;20226;-79
2024/03/19 07:17:09;;;;;;;5.50;3.03;;;;;;;-145.69;78.07;52424.59;5094985;28;20194;-80
2024/03/19 07:19:41;;;;;;;6.37;2.73;;;;;;;-145.69;78.16;52440.44;5098387;28;20193;-80
2024/03/19 07:22:08;;;;;;;6.33;2.30;;;;;;;-145.69;77.85;52452.31;5114439;28;20224;-80
2024/03/19 07:24:35;;;;;;;3.90;2.87;;;;;;;-145.69;78.57;52414.69;5115056;28;20221;-79
2024/03/19 07:27:02;;;;;;;5.73;3.37;;;;;;;-145.69;78.35;52436.47;5114773;28;20198;-79
2024/03/19 07:29:28;;;;;;;8.03;3.37;;;;;;;-145.69;78.55;52454.28;5114174;28;20197;-79
2024/03/19 07:31:55;;;;;;;6.90;3.30;;;;;;;-145.69;78.40;52428.53;5114393;28;20194;-80
2024/03/19 07:34:22;;;;;;;6.20;3.80;;;;;;;-145.69;78.77;52432.50;5114773;28;20568;-79
2024/03/19 07:36:50;;;;;;;5.13;3.30;;;;;;;-145.69;78.40;52430.53;5114216;28;20193;-79
2024/03/19 07:42:00;;;;;;;4.40;3.20;;;;;;;-145.69;78.81;52452.31;5111804;27;20263;-79
2024/03/19 07:44:26;;;;;;;3.43;2.40;;;;;;;-145.69;78.76;52432.50;5114519;28;20243;-80
2024/03/19 07:46:53;;;;;;;4.67;2.23;;;;;;;-145.69;79.26;52426.56;5114530;28;20202;-80
2024/03/19 07:49:20;;;;;;;7.27;2.60;;;;;;;-145.69;78.85;52388.94;5114591;28;20197;-79
2024/03/19 07:51:50;;;;;;;6.00;3.07;;;;;;;-145.69;78.50;52394.88;5113864;28;20225;-79
2024/03/19 07:54:27;;;;;;;3.20;2.47;;;;;;;-145.69;78.38;52398.84;5094175;28;20218;-80
2024/03/19 07:56:54;;;;;;;4.90;2.80;;;;;;;-145.69;77.71;52402.78;5101105;27;20185;-79
2024/03/19 07:59:20;;;;;;;6.70;2.80;;;;;;;-145.69;78.13;52386.97;5113882;28;20214;-79
2024/03/19 08:01:48;;;;;;;4.97;2.73;;;;;;;-145.69;78.48;52369.13;5113909;28;20741;-79
2024/03/19 08:04:16;;;;;;;5.93;2.57;;;;;;;-145.69;78.75;52406.75;5114230;28;20678;-79
2024/03/19 08:06:55;;;;;;;4.43;2.30;;;;;;;-145.69;79.04;52452.31;5114358;28;20193;-80
2024/03/19 08:09:25;;;;;;;7.37;2.47;;;;;;;-145.69;79.87;52384.97;5114053;28;20200;-80
2024/03/19 08:11:51;;;;;;;3.00;2.10;;;;;;;-145.69;79.73;52361.22;5113901;28;20251;-79
2024/03/19 08:14:21;;;;;;;3.33;2.00;;;;;;;-145.69;79.75;52377.06;5113520;28;20253;-80
2024/03/19 08:16:52;;;;;;;2.92;1.90;;;;;;;-145.69;80.32;52392.91;5113730;28;20759;-80
2024/03/19 08:19:19;;;;;;;2.65;1.92;;;;;;;-145.69;79.61;52392.91;5113960;28;20209;-80
2024/03/19 08:21:45;;;;;;;3.88;1.90;;;;;;;-145.69;78.90;52365.16;5113958;28;20205;-81
2024/03/19 08:24:14;;;;;;;1.88;1.30;;;;;;;-145.69;79.74;52365.16;5113536;28;20652;-80
2024/03/19 08:26:44;;;;;;;2.42;1.60;;;;;;;-145.69;80.17;52373.09;5113005;28;20193;-80
2024/03/19 08:29:17;;;;;;;4.63;1.50;;;;;;;-145.69;80.32;52375.06;5108925;28;20636;-80
2024/03/19 08:31:48;;;;;;;2.08;1.42;;;;;;;-145.69;79.21;52375.06;5113511;28;20225;-79
2024/03/19 08:34:16;;;;;;;1.85;1.33;;;;;;;-145.69;79.31;52359.22;5113131;28;20197;-81
2024/03/19 08:36:43;;;;;;;2.53;1.17;;;;;;;-145.69;78.55;52331.50;5113734;28;20193;-80
2024/03/19 08:39:14;;;;;;;1.35;1.05;;;;;;;-145.69;79.12;52383.00;5113059;28;20600;-81
2024/03/19 08:41:42;;;;;;;2.05;1.02;;;;;;;-145.69;75.60;52357.25;5113763;28;20201;-80
2024/03/19 08:44:19;;;;;;;3.10;1.20;;;;;;;-145.69;76.23;52333.47;5113408;28;20208;-80
2024/03/19 08:46:48;;;;;;;1.50;1.27;;;;;;;-145.69;74.46;52321.59;5113516;28;20204;-80
2024/03/19 08:49:18;;;;;;;1.73;1.20;;;;;;;-145.69;76.87;52337.44;5113537;28;20205;-78
2024/03/19 08:51:47;;;;;;;2.88;1.60;;;;;;;-145.69;77.57;52309.72;5112855;28;20225;-78
2024/03/19 08:54:13;;;;;;;3.05;1.52;;;;;;;-145.69;73.92;52345.38;5113294;28;20556;-78
2024/03/19 08:56:49;;;;;;;2.53;1.63;;;;;;;-145.69;75.23;52317.66;5112963;28;20716;-79
2024/03/19 08:59:17;;;;;;;2.85;1.60;;;;;;;-145.69;76.17;52325.56;5112759;28;20193;-78
2024/03/19 09:01:44;;;;;;;5.00;2.15;;;;;;;-145.69;73.79;52325.56;5113175;28;20213;-78
2024/03/19 09:04:12;;;;;;;3.30;2.30;;;;;;;-145.69;77.53;52305.75;5112915;28;20197;-78
2024/03/19 09:06:42;;;;;;;2.28;1.92;;;;;;;-145.69;70.98;52337.44;5111037;28;20194;-79
2024/03/19 09:09:18;;;;;;;3.17;1.75;;;;;;;-145.69;78.77;52297.84;5112240;28;20196;-80
2024/03/19 09:11:51;;;;;;;2.55;1.50;;;;;;;-145.69;69.26;52337.44;5092967;28;20205;-79
2024/03/19 09:14:20;;;;;;;3.38;1.63;;;;;;;-145.69;72.02;52329.53;5092524;28;20198;-79
2024/03/19 09:16:48;;;;;;;4.05;1.52;;;;;;;-145.69;67.82;52297.84;5092377;28;20284;-78
2024/03/19 09:19:18;;;;;;;2.90;1.80;;;;;;;-145.69;75.57;52301.81;5092760;28;20198;-79
2024/03/19 09:21:47;;;;;;;6.13;2.03;;;;;;;-145.69;77.62;52301.81;5092889;28;20202;-80
2024/03/19 09:24:16;;;;;;;2.50;1.67;;;;;;;-145.69;72.51;52317.66;5091424;28;20198;-79
2024/03/19 09:26:45;;;;;;;2.90;1.80;;;;;;;-145.69;77.70;52299.81;5094246;28;20198;-79
2024/03/19 09:29:16;;;;;;;4.45;1.45;;;;;;;-145.69;65.61;52272.09;5112261;28;20675;-79
2024/03/19 09:31:45;;;;;;;3.40;1.80;;;;;;;-145.69;75.04;52285.97;5112662;28;20197;-78
2024/03/19 09:34:34;;;;;;;2.03;1.40;;;;;;;-145.69;71.64;52307.75;5112068;28;20194;-78
2024/03/19 09:37:01;;;;;;;1.98;1.30;;;;;;;-145.69;66.11;52291.91;5106965;28;20197;-79
2024/03/19 09:39:28;;;;;;;3.22;1.30;;;;;;;-145.69;71.72;52321.59;5112404;28;20221;-79
2024/03/19 09:42:04;;;;;;;2.75;1.30;;;;;;;-145.69;70.69;52297.84;5112796;28;20201;-79
2024/03/19 09:44:33;;;;;;;2.17;1.20;;;;;;;-145.69;67.72;52303.78;5112425;28;20288;-78
2024/03/19 09:47:00;;;;;;;2.55;1.50;;;;;;;-145.69;66.78;52329.53;5112155;27;20648;-78
2024/03/19 09:49:32;;;;;;;1.95;1.40;;;;;;;-145.69;64.83;52325.56;5112797;28;20200;-78
2024/03/19 09:52:01;;;;;;;2.90;1.42;;;;;;;-145.69;70.26;52266.16;5111943;28;20714;-78
2024/03/19 09:54:28;;;;;;;3.03;1.30;;;;;;;-145.69;70.89;52335.47;5112094;28;20190;-78
2024/03/19 09:56:58;;;;;;;2.17;1.40;;;;;;;-145.69;65.28;52335.47;5114170;28;20655;-78
2024/03/19 09:59:27;;;;;;;2.97;1.77;;;;;;;-145.69;66.34;52339.44;5114049;28;20202;-80
2024/03/19 10:02:09;;;;;;;1.75;1.42;;;;;;;-145.69;67.98;52363.19;5112201;28;20201;-80
2024/03/19 10:04:45;;;;;;;1.58;1.23;;;;;;;-145.69;67.31;52335.47;5112564;28;20201;-79
2024/03/19 10:07:12;;;;;;;2.35;1.60;;;;;;;-145.69;66.49;52301.81;5112496;28;20197;-79
2024/03/19 10:09:47;;;;;;;3.53;1.50;;;;;;;-145.69;64.94;52321.59;5112056;28;20202;-79
2024/03/19 10:12:17;;;;;;;3.95;1.20;;;;;;;-145.69;68.25;52293.88;5112518;28;20200;-79
2024/03/19 10:14:44;;;;;;;2.67;1.50;;;;;;;-145.69;71.56;52301.81;5112470;28;20197;-79
2024/03/19 10:17:16;;;;;;;2.75;1.55;;;;;;;-145.69;72.71;52285.97;5112150;28;20189;-78
2024/03/19 10:19:45;;;;;;;7.93;1.50;;;;;;;-145.69;72.54;52305.75;5112223;28;20193;-79
2024/03/19 10:22:13;;;;;;;2.72;1.35;;;;;;;-145.69;72.46;52293.88;5112276;28;20201;-79
2024/03/19 10:24:46;;;;;;;1.45;1.20;;;;;;;-145.69;64.08;52303.78;5112616;28;20197;-78
2024/03/19 10:27:21;;;;;;;2.10;1.20;;;;;;;-145.69;60.19;52299.81;5111731;28;20660;-79
2024/03/19 10:29:50;;;;;;;2.45;1.35;;;;;;;-145.69;67.85;52291.91;5112285;28;20233;-78
2024/03/19 10:32:17;;;;;;;3.03;1.40;;;;;;;-145.69;63.69;52274.06;5112454;28;20202;-78
2024/03/19 10:34:46;;;;;;;2.35;1.13;;;;;;;-145.69;66.11;52291.91;5113012;28;20194;-78
2024/03/19 10:37:14;;;;;;;1.60;1.10;;;;;;;-145.69;69.83;52282.00;5115870;28;20201;-77
2024/03/19 10:39:41;;;;;;;2.05;1.45;;;;;;;-145.69;67.12;52289.91;5115544;28;20198;-78
2024/03/19 10:42:13;;;;;;;3.45;1.40;;;;;;;-145.69;65.06;52285.97;5113044;27;20208;-78
2024/03/19 10:44:41;;;;;;;1.05;0.95;;;;;;;-145.69;56.27;52250.31;5111877;28;20205;-80
2024/03/19 10:47:13;;;;;;;3.70;1.25;;;;;;;-145.69;57.55;52274.06;5134868;27;20222;-80
2024/03/19 10:49:48;;;;;;;4.13;1.90;;;;;;;-145.69;59.57;52242.38;5115577;28;20205;-81
2024/03/19 10:52:20;;;;;;;3.90;1.35;;;;;;;-145.69;59.31;52264.16;5094885;28;20249;-81
2024/03/19 10:54:53;;;;;;;3.13;1.80;;;;;;;-145.69;59.20;52258.22;5094955;28;20201;-80
2024/03/19 10:57:24;;;;;;;3.35;2.22;;;;;;;-145.69;58.78;52270.13;5100353;27;20197;-80
2024/03/19 10:59:55;;;;;;;4.25;1.92;;;;;;;-145.69;58.40;52285.97;5115131;28;20224;-79
2024/03/19 11:02:29;;;;;;;3.22;1.90;;;;;;;-145.69;58.18;52254.28;5115323;28;20562;-78
2024/03/19 11:04:57;;;;;;;4.43;2.20;;;;;;;-145.69;57.38;52289.91;5113094;28;20203;-77
2024/03/19 11:07:29;;;;;;;3.22;1.92;;;;;;;-145.69;57.35;52274.06;5115541;27;20201;-78
2024/03/19 11:10:00;;;;;;;6.03;2.00;;;;;;;-145.69;57.25;52274.06;5115153;28;20202;-78
2024/03/19 11:12:38;;;;;;;4.20;1.50;;;;;;;-145.69;56.63;52293.88;5114440;28;20197;-78
2024/03/19 11:15:16;;;;;;;3.55;1.60;;;;;;;-145.69;56.55;52315.66;5113938;28;20786;-78
2024/03/19 11:17:52;;;;;;;3.28;1.60;;;;;;;-145.69;56.33;52297.84;5114685;28;20207;-77
2024/03/19 11:20:30;;;;;;;3.67;1.75;;;;;;;-145.69;56.14;52299.81;5115386;28;20208;-78
2024/03/19 11:22:56;;;;;;;2.10;1.30;;;;;;;-145.69;54.63;52309.72;5115178;28;20540;-77
2024/03/19 11:25:24;;;;;;;5.10;1.80;;;;;;;-145.69;55.06;52299.81;5115141;28;20238;-77